createdAt,value
2023-05-03T00:01:03.419Z,2.37
2023-05-03T00:03:53.219Z,2.20
2023-05-03T00:06:40.013Z,2.40
2023-05-03T00:09:28.215Z,2.87
2023-05-03T00:12:15.085Z,2.40
2023-05-03T00:15:01.752Z,2.50
2023-05-03T00:17:48.587Z,2.70
2023-05-03T00:20:37.170Z,2.80
2023-05-03T00:23:23.866Z,2.60
2023-05-03T00:26:12.020Z,2.57
2023-05-03T00:28:59.257Z,2.63
2023-05-03T00:31:46.154Z,2.60
2023-05-03T00:34:32.835Z,2.60
2023-05-03T00:37:19.692Z,3.27
2023-05-03T00:40:08.808Z,2.50
2023-05-03T00:42:56.769Z,2.40
2023-05-03T00:45:46.370Z,2.53
2023-05-03T00:48:32.810Z,2.27
2023-05-03T00:51:21.911Z,2.60
2023-05-03T00:54:09.183Z,3.50
2023-05-03T00:56:57.606Z,3.10
2023-05-03T00:59:45.420Z,2.63
2023-05-03T01:02:32.673Z,2.77
2023-05-03T01:05:19.351Z,2.70
2023-05-03T01:08:12.558Z,2.57
2023-05-03T01:11:05.794Z,2.90
2023-05-03T01:13:57.348Z,2.60
2023-05-03T01:16:50.996Z,3.27
2023-05-03T01:19:39.153Z,3.57
2023-05-03T01:22:34.211Z,4.70
2023-05-03T01:25:22.273Z,2.97
2023-05-03T01:28:09.310Z,2.53
2023-05-03T01:30:57.978Z,2.90
2023-05-03T01:33:54.865Z,2.60
2023-05-03T01:36:43.956Z,3.30
2023-05-03T01:39:38.492Z,3.37
2023-05-03T01:42:28.930Z,2.97
2023-05-03T01:45:15.887Z,2.63
2023-05-03T01:48:02.675Z,3.43
2023-05-03T01:50:49.312Z,3.57
2023-05-03T01:53:37.719Z,2.67
2023-05-03T01:56:24.424Z,2.70
2023-05-03T01:59:12.517Z,2.70
2023-05-03T02:01:59.305Z,3.10
2023-05-03T02:04:46.373Z,2.77
2023-05-03T02:07:33.083Z,2.80
2023-05-03T02:10:20.178Z,2.83
2023-05-03T02:13:06.880Z,2.80
2023-05-03T02:15:55.618Z,3.27
2023-05-03T02:18:43.449Z,2.90
2023-05-03T02:21:30.254Z,3.33
2023-05-03T02:24:17.698Z,3.07
2023-05-03T02:27:05.126Z,3.20
2023-05-03T02:29:51.766Z,3.50
2023-05-03T02:32:39.933Z,3.17
2023-05-03T02:35:27.983Z,2.90
2023-05-03T02:38:14.753Z,3.20
2023-05-03T02:41:01.582Z,3.20
2023-05-03T02:43:49.869Z,3.17
2023-05-03T02:46:36.808Z,2.93
2023-05-03T02:49:24.835Z,2.97
2023-05-03T02:52:11.851Z,3.00
2023-05-03T02:54:58.707Z,2.83
2023-05-03T02:57:45.460Z,3.10
2023-05-03T03:00:35.330Z,3.00
2023-05-03T03:03:22.265Z,2.83
2023-05-03T03:06:11.363Z,2.80
2023-05-03T03:08:58.571Z,3.47
2023-05-03T03:11:45.433Z,3.67
2023-05-03T03:14:33.247Z,2.90
2023-05-03T03:17:19.898Z,3.50
2023-05-03T03:20:07.650Z,3.13
2023-05-03T03:22:56.491Z,2.83
2023-05-03T03:25:43.346Z,2.47
2023-05-03T03:28:29.976Z,2.80
2023-05-03T03:31:22.786Z,3.43
2023-05-03T03:34:09.645Z,2.90
2023-05-03T03:36:56.908Z,3.07
2023-05-03T03:39:49.191Z,2.77
2023-05-03T03:42:35.963Z,2.90
2023-05-03T03:45:23.834Z,2.67
2023-05-03T03:48:10.468Z,2.70
2023-05-03T03:50:57.450Z,3.00
2023-05-03T03:53:51.122Z,3.37
2023-05-03T03:56:39.222Z,3.00
2023-05-03T03:59:26.446Z,3.10
2023-05-03T04:02:13.460Z,3.17
2023-05-03T04:05:00.281Z,2.67
2023-05-03T04:07:47.096Z,2.90
2023-05-03T04:10:36.001Z,2.97
2023-05-03T04:13:24.388Z,2.63
2023-05-03T04:16:13.237Z,2.60
2023-05-03T04:19:01.606Z,3.17
2023-05-03T04:21:49.210Z,2.53
2023-05-03T04:24:40.757Z,2.90
2023-05-03T04:27:30.054Z,2.40
2023-05-03T04:30:18.600Z,2.60
2023-05-03T04:33:10.542Z,2.93
2023-05-03T04:35:58.514Z,2.40
2023-05-03T04:38:45.841Z,2.40
2023-05-03T04:41:33.433Z,3.33
2023-05-03T04:44:21.300Z,2.93
2023-05-03T04:47:11.903Z,2.77
2023-05-03T04:50:00.858Z,2.70
2023-05-03T04:52:48.161Z,2.97
2023-05-03T04:55:35.266Z,2.33
2023-05-03T04:58:24.227Z,3.30
2023-05-03T05:01:11.166Z,2.00
2023-05-03T05:03:59.639Z,2.37
2023-05-03T05:06:54.744Z,2.33
2023-05-03T05:09:46.080Z,1.70
2023-05-03T05:12:32.925Z,1.80
2023-05-03T05:15:22.656Z,1.80
2023-05-03T05:18:09.379Z,1.63
2023-05-03T05:20:59.527Z,1.50
2023-05-03T05:23:47.292Z,1.87
2023-05-03T05:26:34.230Z,2.03
2023-05-03T05:29:20.925Z,1.40
2023-05-03T05:32:07.677Z,1.70
2023-05-03T05:34:55.710Z,1.90
2023-05-03T05:37:46.436Z,1.83
2023-05-03T05:40:34.116Z,1.60
2023-05-03T05:43:21.290Z,1.43
2023-05-03T05:46:09.597Z,1.93
2023-05-03T05:48:56.666Z,2.03
2023-05-03T05:51:43.341Z,1.63
2023-05-03T05:54:32.043Z,1.63
2023-05-03T05:57:19.797Z,1.90
2023-05-03T06:00:14.649Z,2.17
2023-05-03T06:03:02.738Z,1.87
2023-05-03T06:05:49.938Z,1.70
2023-05-03T06:08:36.835Z,1.70
2023-05-03T06:11:26.808Z,2.23
2023-05-03T06:14:15.361Z,2.30
2023-05-03T06:17:02.212Z,1.47
2023-05-03T06:19:49.482Z,1.70
2023-05-03T06:22:37.903Z,1.83
2023-05-03T06:25:25.172Z,2.07
2023-05-03T06:28:13.359Z,2.17
2023-05-03T06:31:00.228Z,1.77
2023-05-03T06:33:48.033Z,1.53
2023-05-03T06:36:35.685Z,2.40
2023-05-03T06:39:23.214Z,2.40
2023-05-03T06:42:10.555Z,2.10
2023-05-03T06:45:01.348Z,2.43
2023-05-03T06:47:48.895Z,2.27
2023-05-03T06:50:36.480Z,2.20
2023-05-03T06:53:23.262Z,1.77
2023-05-03T06:56:10.084Z,2.80
2023-05-03T06:58:56.938Z,2.27
2023-05-03T07:01:45.034Z,2.20
2023-05-03T07:04:31.813Z,2.50
2023-05-03T07:07:18.887Z,1.90
2023-05-03T07:10:06.182Z,2.20
2023-05-03T07:12:53.212Z,1.90
2023-05-03T07:15:40.174Z,2.07
2023-05-03T07:18:28.400Z,2.23
2023-05-03T07:21:15.572Z,1.87
2023-05-03T07:24:02.495Z,2.33
2023-05-03T07:26:49.267Z,2.10
2023-05-03T07:29:36.471Z,2.13
2023-05-03T07:32:23.306Z,2.30
2023-05-03T07:35:11.684Z,2.17
2023-05-03T07:37:58.301Z,2.70
2023-05-03T07:40:45.675Z,2.27
2023-05-03T07:43:32.438Z,1.93
2023-05-03T07:46:19.219Z,2.33
2023-05-03T07:49:07.952Z,2.43
2023-05-03T07:51:55.776Z,2.40
2023-05-03T07:54:43.786Z,2.50
2023-05-03T07:57:31.198Z,2.60
2023-05-03T08:00:20.232Z,2.47
2023-05-03T08:03:07.392Z,1.60
2023-05-03T08:05:53.862Z,2.30
2023-05-03T08:08:42.795Z,2.80
2023-05-03T08:11:29.837Z,2.60
2023-05-03T08:14:17.136Z,2.33
2023-05-03T08:17:04.863Z,2.10
2023-05-03T08:19:52.057Z,2.90
2023-05-03T08:22:40.560Z,2.17
2023-05-03T08:25:28.604Z,2.57
2023-05-03T08:28:15.270Z,1.90
2023-05-03T08:31:03.771Z,2.33
2023-05-03T08:33:50.892Z,1.93
2023-05-03T08:36:38.293Z,2.10
2023-05-03T08:39:26.247Z,2.03
2023-05-03T08:42:14.019Z,2.50
2023-05-03T08:45:00.775Z,2.50
2023-05-03T08:47:47.338Z,2.10
2023-05-03T08:50:42.055Z,2.40
2023-05-03T08:53:28.678Z,2.00
2023-05-03T08:56:22.466Z,1.93
2023-05-03T08:59:11.768Z,2.00
2023-05-03T09:01:58.555Z,2.00
2023-05-03T09:04:46.550Z,2.97
2023-05-03T09:07:37.716Z,2.00
2023-05-03T09:10:24.648Z,2.87
2023-05-03T09:13:12.157Z,1.83
2023-05-03T09:16:00.296Z,2.30
2023-05-03T09:18:57.910Z,2.10
2023-05-03T09:21:47.208Z,2.10
2023-05-03T09:24:34.262Z,2.00
2023-05-03T09:27:21.584Z,2.23
2023-05-03T09:30:26.879Z,1.97
2023-05-03T09:33:20.526Z,2.20
2023-05-03T09:36:07.824Z,2.60
2023-05-03T09:38:56.099Z,1.80
2023-05-03T09:41:42.654Z,2.17
2023-05-03T09:44:42.943Z,2.17
2023-05-03T09:47:32.226Z,2.23
2023-05-03T09:50:20.666Z,2.13
2023-05-03T09:53:08.463Z,1.60
2023-05-03T09:55:56.254Z,2.33
2023-05-03T09:58:44.016Z,2.43
2023-05-03T10:01:32.095Z,2.17
2023-05-03T10:04:22.181Z,2.10
2023-05-03T10:07:14.330Z,1.97
2023-05-03T10:10:01.462Z,2.00
2023-05-03T10:12:49.671Z,1.90
2023-05-03T10:15:38.732Z,2.40
2023-05-03T10:18:30.178Z,8.97
2023-05-03T10:21:32.162Z,2.00
2023-05-03T10:24:20.295Z,2.27
2023-05-03T10:27:08.538Z,2.00
2023-05-03T10:29:56.297Z,1.87
2023-05-03T10:32:44.647Z,1.90
2023-05-03T10:35:31.393Z,2.10
2023-05-03T10:38:22.094Z,1.60
2023-05-03T10:41:10.448Z,1.70
2023-05-03T10:43:58.088Z,1.77
2023-05-03T10:46:45.274Z,1.77
2023-05-03T10:49:32.128Z,2.10
2023-05-03T10:52:47.101Z,2.07
2023-05-03T10:55:34.790Z,1.60
2023-05-03T10:58:23.197Z,1.80
2023-05-03T11:01:11.716Z,1.90
2023-05-03T11:04:05.826Z,1.87
2023-05-03T11:06:56.923Z,2.10
2023-05-03T11:09:44.551Z,1.83
2023-05-03T11:12:32.367Z,1.97
2023-05-03T11:15:21.292Z,1.70
2023-05-03T11:18:08.770Z,1.80
2023-05-03T11:20:56.075Z,2.00
2023-05-03T11:23:43.849Z,2.00
2023-05-03T11:26:30.427Z,1.77
2023-05-03T11:29:17.810Z,1.77
2023-05-03T11:32:09.054Z,1.70
2023-05-03T11:34:56.172Z,2.20
2023-05-03T11:37:44.344Z,2.07
2023-05-03T11:40:31.633Z,1.97
2023-05-03T11:43:18.166Z,2.03
2023-05-03T11:46:05.900Z,1.93
2023-05-03T11:48:54.268Z,1.80
2023-05-03T11:51:41.647Z,1.97
2023-05-03T11:54:28.468Z,1.73
2023-05-03T11:57:16.261Z,1.77
2023-05-03T12:00:14.571Z,1.63
2023-05-03T12:03:01.468Z,1.90
2023-05-03T12:05:53.196Z,1.97
2023-05-03T12:08:43.229Z,1.93
2023-05-03T12:11:33.399Z,1.80
2023-05-03T12:14:22.328Z,1.83
2023-05-03T12:17:11.294Z,1.97
2023-05-03T12:21:05.167Z,1.70
2023-05-03T12:23:26.671Z,1.57
2023-05-03T12:26:15.062Z,1.70
2023-05-03T12:29:02.591Z,1.80
2023-05-03T12:31:52.920Z,1.73
2023-05-03T12:34:41.921Z,2.03
2023-05-03T12:37:33.283Z,1.77
2023-05-03T12:40:33.568Z,1.63
2023-05-03T12:43:22.390Z,1.90
2023-05-03T12:49:07.733Z,2.03
2023-05-03T12:52:23.063Z,1.60
2023-05-03T12:55:11.152Z,1.83
2023-05-03T12:58:26.820Z,1.37
2023-05-03T13:04:11.762Z,2.10
2023-05-03T13:07:03.107Z,1.90
2023-05-03T13:12:39.539Z,1.63
2023-05-03T13:15:27.799Z,1.87
2023-05-03T13:18:14.950Z,1.60
2023-05-03T13:21:02.213Z,1.60
2023-05-03T13:23:49.585Z,1.67
2023-05-03T13:26:36.708Z,1.60
2023-05-03T13:29:24.273Z,1.70
2023-05-03T13:32:12.913Z,1.77
2023-05-03T13:34:59.724Z,1.63
2023-05-03T13:37:46.546Z,1.50
2023-05-03T13:40:33.221Z,1.90
2023-05-03T13:43:19.967Z,1.43
2023-05-03T13:46:06.859Z,11.97
2023-05-03T13:48:56.583Z,1.40
2023-05-03T13:51:50.153Z,1.67
2023-05-03T13:54:38.233Z,3.10
2023-05-03T13:57:24.619Z,1.60
2023-05-03T14:00:13.287Z,1.43
2023-05-03T14:03:00.026Z,1.90
2023-05-03T14:05:48.387Z,1.83
2023-05-03T14:08:35.173Z,1.50
2023-05-03T14:11:22.866Z,1.40
2023-05-03T14:14:09.384Z,1.80
2023-05-03T14:16:56.377Z,1.80
2023-05-03T14:19:42.813Z,2.40
2023-05-03T14:22:31.045Z,1.80
2023-05-03T14:25:17.790Z,1.33
2023-05-03T14:28:05.343Z,1.57
2023-05-03T14:30:52.608Z,1.63
2023-05-03T14:33:39.258Z,1.50
2023-05-03T14:36:27.063Z,1.67
2023-05-03T14:39:16.509Z,1.30
2023-05-03T14:42:03.458Z,1.43
2023-05-03T14:44:50.442Z,1.50
2023-05-03T14:47:37.411Z,1.30
2023-05-03T14:50:24.317Z,1.60
2023-05-03T14:53:11.300Z,1.53
2023-05-03T14:55:59.271Z,1.63
2023-05-03T14:58:46.170Z,1.30
2023-05-03T15:01:32.857Z,1.50
2023-05-03T15:04:19.519Z,1.57
2023-05-03T15:07:06.747Z,1.40
2023-05-03T15:09:53.619Z,1.30
2023-05-03T15:12:42.314Z,1.80
2023-05-03T15:15:29.010Z,1.50
2023-05-03T15:18:18.768Z,2.03
2023-05-03T15:21:07.404Z,1.47
2023-05-03T15:23:54.443Z,1.40
2023-05-03T15:26:41.465Z,1.80
2023-05-03T15:29:29.486Z,1.30
2023-05-03T15:32:16.447Z,1.53
2023-05-03T15:35:03.134Z,1.57
2023-05-03T15:37:49.873Z,1.30
2023-05-03T15:40:36.765Z,1.40
2023-05-03T15:43:23.514Z,1.50
2023-05-03T15:46:11.842Z,1.73
2023-05-03T15:48:58.634Z,1.50
2023-05-03T15:51:45.434Z,1.43
2023-05-03T15:54:32.180Z,1.30
2023-05-03T15:57:19.740Z,1.30
2023-05-03T16:00:13.415Z,1.63
2023-05-03T16:03:01.795Z,1.73
2023-05-03T16:05:48.798Z,1.90
2023-05-03T16:08:35.576Z,1.90
2023-05-03T16:11:22.567Z,1.43
2023-05-03T16:14:09.732Z,1.60
2023-05-03T16:16:56.372Z,1.47
2023-05-03T16:19:44.793Z,1.90
2023-05-03T16:22:31.630Z,1.20
2023-05-03T16:25:19.009Z,1.30
2023-05-03T16:28:05.648Z,1.53
2023-05-03T16:30:52.138Z,2.03
2023-05-03T16:33:38.971Z,1.70
2023-05-03T16:36:28.092Z,1.30
2023-05-03T16:39:15.742Z,1.50
2023-05-03T16:42:02.864Z,1.53
2023-05-03T16:44:49.724Z,1.47
2023-05-03T16:47:36.506Z,1.50
2023-05-03T16:50:23.383Z,1.50
2023-05-03T16:53:13.226Z,1.67
2023-05-03T16:56:00.004Z,1.67
2023-05-03T16:58:47.672Z,1.50
2023-05-03T17:01:34.477Z,1.30
2023-05-03T17:04:21.399Z,1.40
2023-05-03T17:07:07.864Z,1.90
2023-05-03T17:09:56.045Z,1.50
2023-05-03T17:12:42.831Z,1.50
2023-05-03T17:15:29.877Z,1.60
2023-05-03T17:18:16.665Z,1.67
2023-05-03T17:21:04.747Z,1.83
2023-05-03T17:23:51.677Z,1.93
2023-05-03T17:26:40.228Z,1.60
2023-05-03T17:29:27.517Z,1.50
2023-05-03T17:32:14.905Z,1.80
2023-05-03T17:35:01.693Z,2.10
2023-05-03T17:37:48.450Z,2.00
2023-05-03T17:40:36.725Z,1.70
2023-05-03T17:43:24.477Z,1.30
2023-05-03T17:46:14.653Z,1.57
2023-05-03T17:49:01.665Z,2.30
2023-05-03T17:51:48.929Z,1.80
2023-05-03T17:54:36.459Z,1.60
2023-05-03T17:57:22.884Z,2.10
2023-05-03T18:00:15.519Z,1.83
2023-05-03T18:03:08.686Z,2.23
2023-05-03T18:05:55.880Z,2.00
2023-05-03T18:08:42.811Z,5.87
2023-05-03T18:11:30.949Z,2.53
2023-05-03T18:14:18.204Z,2.83
2023-05-03T18:17:07.524Z,2.73
2023-05-03T18:19:53.999Z,2.87
2023-05-03T18:22:40.712Z,2.47
2023-05-03T18:25:27.600Z,2.50
2023-05-03T18:28:14.360Z,2.30
2023-05-03T18:31:01.186Z,2.53
2023-05-03T18:33:49.531Z,2.07
2023-05-03T18:36:36.317Z,1.70
2023-05-03T18:39:23.289Z,2.50
2023-05-03T18:42:10.171Z,2.60
2023-05-03T18:44:56.966Z,7.73
2023-05-03T18:47:43.555Z,7.33
2023-05-03T18:50:33.642Z,6.57
2023-05-03T18:53:20.903Z,7.07
2023-05-03T18:56:09.248Z,8.70
2023-05-03T18:58:56.363Z,7.87
2023-05-03T19:01:44.685Z,6.90
2023-05-03T19:04:31.595Z,6.83
2023-05-03T19:07:21.497Z,5.20
2023-05-03T19:10:09.932Z,3.57
2023-05-03T19:12:58.252Z,5.00
2023-05-03T19:15:45.727Z,4.20
2023-05-03T19:18:34.294Z,3.57
2023-05-03T19:21:22.412Z,3.27
2023-05-03T19:24:15.600Z,3.70
2023-05-03T19:27:02.312Z,2.73
2023-05-03T19:29:49.045Z,3.13
2023-05-03T19:35:40.643Z,2.30
2023-05-03T19:38:27.560Z,2.30
2023-05-03T19:41:15.504Z,2.60
2023-05-03T19:44:02.428Z,2.30
2023-05-03T19:46:52.705Z,2.50
2023-05-03T19:49:40.520Z,2.83
2023-05-03T19:52:27.393Z,2.57
2023-05-03T19:55:14.501Z,2.60
2023-05-03T19:58:02.356Z,3.20
2023-05-03T20:00:49.054Z,2.33
2023-05-03T20:03:35.933Z,2.70
2023-05-03T20:06:22.994Z,2.20
2023-05-03T20:09:09.669Z,2.57
2023-05-03T20:11:58.844Z,2.50
2023-05-03T20:14:47.242Z,2.50
2023-05-03T20:17:33.803Z,2.70
2023-05-03T20:20:20.577Z,3.67
2023-05-03T20:23:07.279Z,3.60
2023-05-03T20:25:54.221Z,3.63
2023-05-03T20:28:40.754Z,3.50
2023-05-03T20:31:29.172Z,3.70
2023-05-03T20:34:15.994Z,2.93
2023-05-03T20:37:03.594Z,3.20
2023-05-03T20:39:50.195Z,6.30
2023-05-03T20:42:36.935Z,4.93
2023-05-03T20:45:23.637Z,4.83
2023-05-03T20:48:11.817Z,5.13
2023-05-03T20:51:00.861Z,5.27
2023-05-03T20:53:47.460Z,4.17
2023-05-03T20:56:34.471Z,3.93
2023-05-03T20:59:21.040Z,3.63
2023-05-03T21:02:07.855Z,3.37
2023-05-03T21:04:55.913Z,3.10
2023-05-03T21:07:42.709Z,3.63
2023-05-03T21:10:29.401Z,3.30
2023-05-03T21:13:16.197Z,2.47
2023-05-03T21:16:03.026Z,2.90
2023-05-03T21:18:49.727Z,2.63
2023-05-03T21:21:38.163Z,3.10
2023-05-03T21:24:27.522Z,3.23
2023-05-03T21:27:14.400Z,3.10
2023-05-03T21:30:01.830Z,3.17
2023-05-03T21:32:49.753Z,3.27
2023-05-03T21:35:36.271Z,3.70
2023-05-03T21:38:24.430Z,2.90
2023-05-03T21:41:11.471Z,3.30
2023-05-03T21:43:58.349Z,2.57
2023-05-03T21:46:45.422Z,2.67
2023-05-03T21:49:32.301Z,2.63
2023-05-03T21:52:19.013Z,3.33
2023-05-03T21:55:08.506Z,3.13
2023-05-03T21:57:58.278Z,2.70
2023-05-03T22:00:47.113Z,2.90
2023-05-03T22:03:38.341Z,3.23
2023-05-03T22:06:28.452Z,3.10
2023-05-03T22:09:15.403Z,3.20
2023-05-03T22:12:19.133Z,2.63
2023-05-03T22:15:10.896Z,3.00
2023-05-03T22:17:57.978Z,2.90
2023-05-03T22:20:44.328Z,2.87
2023-05-03T22:23:31.628Z,2.97
2023-05-03T22:26:18.445Z,3.20
2023-05-03T22:29:06.598Z,2.77
2023-05-03T22:31:53.673Z,3.73
2023-05-03T22:34:40.586Z,3.40
2023-05-03T22:37:27.218Z,3.53
2023-05-03T22:40:20.151Z,3.50
2023-05-03T22:43:08.102Z,4.00
2023-05-03T22:45:56.356Z,3.20
2023-05-03T22:48:43.110Z,3.20
2023-05-03T22:51:29.743Z,3.07
2023-05-03T22:54:16.496Z,3.33
2023-05-03T22:57:03.384Z,4.13
2023-05-03T22:59:50.058Z,2.80
2023-05-03T23:02:38.206Z,2.97
2023-05-03T23:05:24.794Z,2.97
2023-05-03T23:08:11.655Z,3.33
2023-05-03T23:10:59.594Z,3.30
2023-05-03T23:13:46.467Z,3.33
2023-05-03T23:16:33.799Z,2.90
2023-05-03T23:19:21.887Z,3.30
2023-05-03T23:22:09.254Z,3.10
2023-05-03T23:24:55.798Z,3.60
2023-05-03T23:27:42.541Z,3.20
2023-05-03T23:30:29.813Z,3.33
2023-05-03T23:33:17.230Z,3.10
2023-05-03T23:36:06.503Z,2.83
2023-05-03T23:38:53.242Z,3.73
2023-05-03T23:41:39.791Z,3.87
2023-05-03T23:44:38.513Z,3.17
2023-05-03T23:47:33.524Z,3.27
2023-05-03T23:50:20.491Z,2.90
2023-05-03T23:53:08.703Z,3.23
2023-05-03T23:55:55.258Z,3.20
2023-05-03T23:58:42.050Z,3.00
